createdAt,value
2023-12-09T00:01:44.229Z,10.53
2023-12-09T00:04:12.730Z,5.53
2023-12-09T00:06:48.332Z,12.60
2023-12-09T00:09:19.420Z,9.33
2023-12-09T00:14:15.562Z,10.03
2023-12-09T00:16:44.241Z,10.13
2023-12-09T00:19:14.173Z,4.87
2023-12-09T00:21:42.519Z,8.37
2023-12-09T00:24:10.690Z,9.23
2023-12-09T00:26:42.315Z,9.70
2023-12-09T00:29:10.508Z,3.67
2023-12-09T00:31:38.959Z,6.27
2023-12-09T00:34:07.969Z,6.57
2023-12-09T00:36:36.169Z,6.93
2023-12-09T00:39:04.351Z,8.57
2023-12-09T00:41:33.474Z,8.50
2023-12-09T00:44:02.857Z,6.43
2023-12-09T00:46:30.939Z,6.97
2023-12-09T00:48:58.118Z,5.57
2023-12-09T00:51:26.541Z,7.63
2023-12-09T00:53:54.795Z,6.63
2023-12-09T00:56:33.655Z,6.67
2023-12-09T00:59:05.041Z,10.82
2023-12-09T01:01:34.797Z,9.03
2023-12-09T01:04:03.479Z,7.93
2023-12-09T01:06:30.911Z,4.80
2023-12-09T01:08:59.102Z,6.90
2023-12-09T01:11:27.453Z,8.00
2023-12-09T01:13:58.335Z,8.33
2023-12-09T01:16:28.073Z,9.47
2023-12-09T01:18:56.232Z,5.80
2023-12-09T01:21:24.462Z,8.77
2023-12-09T01:23:52.582Z,3.77
2023-12-09T01:26:20.750Z,9.37
2023-12-09T01:28:48.857Z,7.53
2023-12-09T01:31:17.302Z,9.63
2023-12-09T01:33:46.891Z,9.23
2023-12-09T01:36:15.741Z,7.80
2023-12-09T01:38:43.962Z,8.37
2023-12-09T01:41:12.356Z,11.30
2023-12-09T01:43:40.641Z,8.60
2023-12-09T01:46:12.132Z,7.20
2023-12-09T01:48:40.829Z,7.97
2023-12-09T01:51:11.198Z,8.13
2023-12-09T01:53:39.904Z,10.50
2023-12-09T01:56:11.448Z,8.33
2023-12-09T01:58:40.013Z,7.37
2023-12-09T02:01:08.551Z,12.30
2023-12-09T02:03:36.986Z,10.10
2023-12-09T02:06:05.537Z,9.20
2023-12-09T02:08:36.213Z,7.57
2023-12-09T02:11:14.309Z,9.15
2023-12-09T02:13:53.190Z,11.17
2023-12-09T02:16:28.225Z,11.60
2023-12-09T02:18:59.374Z,9.07
2023-12-09T02:21:27.494Z,10.63
2023-12-09T02:23:57.149Z,18.77
2023-12-09T02:26:27.729Z,12.90
2023-12-09T02:29:02.614Z,15.05
2023-12-09T02:31:35.800Z,10.67
2023-12-09T02:34:06.828Z,13.63
2023-12-09T02:39:07.397Z,14.53
2023-12-09T02:41:35.744Z,10.20
2023-12-09T02:44:04.153Z,13.27
2023-12-09T02:46:32.305Z,12.53
2023-12-09T02:49:01.719Z,14.20
2023-12-09T02:51:30.043Z,13.03
2023-12-09T02:53:58.172Z,12.93
2023-12-09T02:56:27.648Z,10.63
2023-12-09T02:58:55.759Z,13.77
2023-12-09T03:01:23.874Z,12.83
2023-12-09T03:03:52.215Z,7.17
2023-12-09T03:06:20.328Z,17.00
2023-12-09T03:08:48.444Z,16.70
2023-12-09T03:11:16.584Z,13.30
2023-12-09T03:13:46.002Z,13.07
2023-12-09T03:16:14.105Z,17.83
2023-12-09T03:18:42.384Z,14.87
2023-12-09T03:21:15.782Z,16.50
2023-12-09T03:23:44.652Z,14.30
2023-12-09T03:26:16.880Z,15.07
2023-12-09T03:28:46.763Z,13.07
2023-12-09T03:31:16.093Z,9.00
2023-12-09T03:33:44.704Z,17.60
2023-12-09T03:36:14.646Z,13.67
2023-12-09T03:38:43.201Z,13.93
2023-12-09T03:41:11.767Z,12.10
2023-12-09T03:43:39.925Z,22.53
2023-12-09T03:46:10.317Z,19.20
2023-12-09T03:48:38.518Z,13.33
2023-12-09T03:51:07.366Z,16.40
2023-12-09T03:53:35.506Z,9.50
2023-12-09T03:56:04.639Z,11.50
2023-12-09T03:58:32.691Z,15.10
2023-12-09T04:01:00.894Z,11.50
2023-12-09T04:03:30.426Z,10.07
2023-12-09T04:05:58.662Z,12.10
2023-12-09T04:08:27.236Z,21.80
2023-12-09T04:10:55.664Z,14.70
2023-12-09T04:13:23.852Z,12.90
2023-12-09T04:15:52.166Z,18.63
2023-12-09T04:18:20.268Z,10.57
2023-12-09T04:20:50.005Z,12.70
2023-12-09T04:23:19.943Z,12.60
2023-12-09T04:25:48.008Z,8.33
2023-12-09T04:28:16.298Z,19.83
2023-12-09T04:30:44.623Z,5.30
2023-12-09T04:33:13.194Z,7.87
2023-12-09T04:35:41.378Z,11.83
2023-12-09T04:38:10.875Z,17.17
2023-12-09T04:40:39.554Z,14.23
2023-12-09T04:43:07.594Z,6.87
2023-12-09T04:45:35.853Z,10.67
2023-12-09T04:48:05.688Z,12.33
2023-12-09T04:50:34.238Z,8.53
2023-12-09T04:53:02.368Z,19.57
2023-12-09T04:55:31.832Z,17.23
2023-12-09T04:57:59.836Z,12.10
2023-12-09T05:00:28.165Z,11.23
2023-12-09T05:02:56.292Z,14.07
2023-12-09T05:05:24.447Z,5.30
2023-12-09T05:07:52.552Z,12.00
2023-12-09T05:10:20.728Z,10.93
2023-12-09T05:12:50.342Z,9.07
2023-12-09T05:15:18.584Z,9.27
2023-12-09T05:17:46.837Z,10.90
2023-12-09T05:20:15.347Z,12.47
2023-12-09T05:22:46.203Z,16.83
2023-12-09T05:25:14.747Z,10.93
2023-12-09T05:27:42.758Z,10.43
2023-12-09T05:30:13.508Z,11.43
2023-12-09T05:32:41.781Z,6.60
2023-12-09T05:35:11.495Z,12.43
2023-12-09T05:37:39.762Z,11.43
2023-12-09T05:40:09.943Z,8.27
2023-12-09T05:42:38.161Z,12.02
2023-12-09T05:45:07.293Z,11.43
2023-12-09T05:47:36.853Z,5.10
2023-12-09T05:50:06.814Z,11.52
2023-12-09T05:52:34.965Z,10.90
2023-12-09T05:55:03.022Z,10.63
2023-12-09T05:57:31.596Z,8.97
2023-12-09T05:59:59.701Z,2.77
2023-12-09T06:02:28.497Z,7.63
2023-12-09T06:04:58.035Z,7.47
2023-12-09T06:07:26.067Z,9.03
2023-12-09T06:09:54.061Z,7.07
2023-12-09T06:12:22.538Z,8.60
2023-12-09T06:14:50.561Z,9.27
2023-12-09T06:17:18.898Z,8.73
2023-12-09T06:19:47.035Z,3.73
2023-12-09T06:22:19.030Z,1.65
2023-12-09T06:24:47.477Z,1.90
2023-12-09T06:27:16.189Z,4.83
2023-12-09T06:29:46.063Z,3.50
2023-12-09T06:32:17.035Z,8.13
2023-12-09T06:34:45.260Z,6.43
2023-12-09T06:37:13.398Z,9.33
2023-12-09T06:39:42.912Z,5.10
2023-12-09T06:42:11.404Z,2.50
2023-12-09T06:44:39.495Z,8.90
2023-12-09T06:47:07.658Z,5.50
2023-12-09T06:49:36.047Z,3.00
2023-12-09T06:52:04.840Z,3.47
2023-12-09T06:54:32.979Z,4.73
2023-12-09T06:57:02.642Z,3.03
2023-12-09T06:59:30.931Z,6.33
2023-12-09T07:01:59.367Z,6.33
2023-12-09T07:04:27.664Z,3.20
2023-12-09T07:07:01.190Z,2.33
2023-12-09T07:09:33.812Z,2.77
2023-12-09T07:12:04.460Z,3.17
2023-12-09T07:14:32.522Z,3.47
2023-12-09T07:17:00.521Z,8.93
2023-12-09T07:19:28.571Z,2.93
2023-12-09T07:22:03.745Z,3.40
2023-12-09T07:24:32.133Z,1.23
2023-12-09T07:27:00.216Z,7.67
2023-12-09T07:29:32.419Z,4.07
2023-12-09T07:32:08.190Z,2.00
2023-12-09T07:34:36.428Z,6.40
2023-12-09T07:37:06.054Z,5.23
2023-12-09T07:39:41.977Z,2.20
2023-12-09T07:42:12.978Z,2.97
2023-12-09T07:44:42.367Z,3.72
2023-12-09T07:47:10.532Z,0.90
2023-12-09T07:49:38.676Z,1.70
2023-12-09T07:56:56.040Z,3.40
2023-12-09T07:59:24.202Z,0.50
2023-12-09T08:01:53.676Z,2.93
2023-12-09T08:04:21.762Z,7.60
2023-12-09T08:06:50.123Z,2.27
2023-12-09T08:09:18.308Z,2.57
2023-12-09T08:11:46.717Z,3.50
2023-12-09T08:14:14.799Z,2.97
2023-12-09T08:16:42.859Z,0.80
2023-12-09T08:19:12.396Z,2.43
2023-12-09T08:21:41.514Z,2.80
2023-12-09T08:24:09.883Z,0.70
2023-12-09T08:26:38.904Z,3.03
2023-12-09T08:29:07.013Z,0.43
2023-12-09T08:31:35.061Z,1.77
2023-12-09T08:34:03.238Z,2.00
2023-12-09T08:36:32.859Z,0.57
2023-12-09T08:39:01.024Z,2.73
2023-12-09T08:41:30.949Z,1.43
2023-12-09T08:43:59.176Z,3.50
2023-12-09T08:46:27.317Z,1.20
2023-12-09T08:48:55.530Z,0.40
2023-12-09T08:51:24.006Z,1.07
2023-12-09T08:53:55.237Z,2.20
2023-12-09T08:56:23.381Z,2.53
2023-12-09T08:58:51.422Z,0.67
2023-12-09T09:01:19.632Z,0.47
2023-12-09T09:03:50.092Z,1.30
2023-12-09T09:06:19.037Z,1.55
2023-12-09T09:08:47.273Z,0.50
2023-12-09T09:11:16.800Z,1.33
2023-12-09T09:13:44.840Z,2.07
2023-12-09T09:16:13.290Z,2.43
2023-12-09T09:18:41.693Z,1.67
2023-12-09T09:21:10.773Z,1.27
2023-12-09T09:23:38.840Z,1.97
2023-12-09T09:26:07.291Z,1.07
2023-12-09T09:28:36.792Z,1.87
2023-12-09T09:31:05.102Z,1.40
2023-12-09T09:33:33.385Z,4.50
2023-12-09T09:36:01.720Z,0.50
2023-12-09T09:38:29.862Z,0.43
2023-12-09T09:40:58.096Z,0.30
2023-12-09T09:43:30.918Z,0.40
2023-12-09T09:46:03.985Z,1.27
2023-12-09T09:48:38.223Z,0.70
2023-12-09T09:51:09.572Z,0.87
2023-12-09T09:53:43.454Z,0.53
2023-12-09T09:56:13.998Z,0.30
2023-12-09T09:58:43.458Z,0.40
2023-12-09T10:01:15.094Z,0.87
2023-12-09T10:03:43.337Z,0.50
2023-12-09T10:06:12.467Z,1.57
2023-12-09T10:08:40.897Z,0.40
2023-12-09T10:11:09.680Z,0.40
2023-12-09T10:13:37.844Z,0.40
2023-12-09T10:16:06.609Z,0.70
2023-12-09T10:18:37.304Z,1.17
2023-12-09T10:21:09.798Z,0.70
2023-12-09T10:23:38.693Z,0.50
2023-12-09T10:26:06.900Z,0.50
2023-12-09T10:28:35.465Z,0.60
2023-12-09T10:31:04.547Z,0.30
2023-12-09T10:33:33.116Z,0.50
2023-12-09T10:36:03.071Z,2.00
2023-12-09T10:38:32.678Z,0.40
2023-12-09T10:41:00.982Z,0.55
2023-12-09T10:43:29.117Z,1.37
2023-12-09T10:45:59.422Z,0.60
2023-12-09T10:48:27.725Z,0.40
2023-12-09T10:50:55.826Z,1.23
2023-12-09T10:53:26.063Z,1.03
2023-12-09T10:55:54.478Z,1.85
2023-12-09T10:58:24.576Z,2.77
2023-12-09T11:00:53.601Z,3.42
2023-12-09T11:03:23.120Z,1.10
2023-12-09T11:05:53.645Z,0.80
2023-12-09T11:08:22.204Z,1.63
2023-12-09T11:10:52.802Z,2.08
2023-12-09T11:13:21.028Z,1.60
2023-12-09T11:15:49.041Z,1.98
2023-12-09T11:18:20.354Z,1.20
2023-12-09T11:20:48.500Z,1.95
2023-12-09T11:23:16.774Z,3.05
2023-12-09T11:25:45.422Z,1.02
2023-12-09T11:28:14.925Z,1.63
2023-12-09T11:30:45.412Z,1.50
2023-12-09T11:33:13.872Z,2.15
2023-12-09T11:35:47.106Z,1.17
2023-12-09T11:38:17.262Z,1.00
2023-12-09T11:40:46.779Z,1.27
2023-12-09T11:43:17.806Z,3.38
2023-12-09T11:48:14.493Z,1.75
2023-12-09T11:50:43.018Z,2.15
2023-12-09T11:53:11.011Z,1.65
2023-12-09T11:55:40.742Z,3.85
2023-12-09T11:58:08.782Z,1.20
2023-12-09T12:00:39.230Z,2.05
2023-12-09T12:03:07.396Z,3.00
2023-12-09T12:05:35.571Z,1.92
2023-12-09T12:08:03.684Z,4.22
2023-12-09T12:10:31.856Z,2.20
2023-12-09T12:13:00.074Z,2.05
2023-12-09T12:15:28.289Z,2.03
2023-12-09T12:17:57.950Z,4.50
2023-12-09T12:20:26.133Z,2.78
2023-12-09T12:22:54.279Z,4.68
2023-12-09T12:25:22.343Z,2.72
2023-12-09T12:27:52.307Z,57.40
2023-12-09T12:30:20.901Z,5.77
2023-12-09T12:32:56.963Z,1.63
2023-12-09T12:35:27.654Z,3.67
2023-12-09T12:37:57.882Z,2.30
2023-12-09T12:40:27.755Z,1.27
2023-12-09T12:42:56.370Z,2.00
2023-12-09T12:45:28.424Z,1.67
2023-12-09T12:47:57.342Z,1.40
2023-12-09T12:50:27.031Z,2.38
2023-12-09T12:52:55.445Z,2.13
2023-12-09T12:55:26.040Z,3.15
2023-12-09T12:57:56.763Z,2.72
2023-12-09T13:02:54.185Z,4.30
2023-12-09T13:05:22.498Z,2.63
2023-12-09T13:07:53.332Z,3.17
2023-12-09T13:10:21.761Z,2.45
2023-12-09T13:12:50.060Z,5.32
2023-12-09T13:15:18.613Z,3.92
2023-12-09T13:17:47.073Z,5.63
2023-12-09T13:20:15.385Z,26.83
2023-12-09T13:22:43.524Z,4.25
2023-12-09T13:25:15.104Z,7.95
2023-12-09T13:27:44.528Z,5.90
2023-12-09T13:30:17.385Z,5.18
2023-12-09T13:32:46.782Z,7.30
2023-12-09T13:35:16.336Z,8.52
2023-12-09T13:37:45.118Z,7.30
2023-12-09T13:40:14.989Z,19.63
2023-12-09T13:42:43.293Z,8.70
2023-12-09T13:45:12.130Z,11.40
2023-12-09T13:47:40.421Z,10.70
2023-12-09T13:50:09.777Z,15.35
2023-12-09T13:52:38.499Z,15.60
2023-12-09T13:55:07.467Z,25.58
2023-12-09T13:57:37.052Z,18.67
2023-12-09T14:00:09.229Z,15.93
2023-12-09T14:02:41.089Z,14.57
2023-12-09T14:05:11.917Z,17.75
2023-12-09T14:07:41.733Z,8.48
2023-12-09T14:10:11.038Z,18.00
2023-12-09T14:12:43.258Z,17.85
2023-12-09T14:15:12.798Z,22.15
2023-12-09T14:17:43.274Z,29.15
2023-12-09T14:20:13.998Z,31.02
2023-12-09T14:22:42.549Z,19.92
2023-12-09T14:25:35.772Z,25.65
2023-12-09T14:28:05.762Z,18.48
2023-12-09T14:30:34.006Z,20.75
2023-12-09T14:33:02.409Z,18.35
2023-12-09T14:35:55.919Z,30.63
2023-12-09T14:38:24.153Z,15.15
2023-12-09T14:40:52.477Z,25.80
2023-12-09T14:43:22.380Z,26.02
2023-12-09T14:45:50.688Z,23.23
2023-12-09T14:48:19.415Z,23.20
2023-12-09T14:50:47.934Z,14.10
2023-12-09T14:53:18.637Z,15.82
2023-12-09T14:55:47.585Z,15.40
2023-12-09T14:58:16.299Z,14.40
2023-12-09T15:00:50.630Z,16.65
2023-12-09T15:03:20.015Z,16.87
2023-12-09T15:05:49.292Z,16.23
2023-12-09T15:08:17.850Z,18.55
2023-12-09T15:10:47.098Z,14.85
2023-12-09T15:13:15.570Z,14.30
2023-12-09T15:15:45.199Z,19.00
2023-12-09T15:18:13.686Z,14.45
2023-12-09T15:20:42.231Z,16.87
2023-12-09T15:23:10.975Z,16.57
2023-12-09T15:25:40.453Z,18.07
2023-12-09T15:28:08.837Z,31.13
2023-12-09T15:30:40.587Z,21.58
2023-12-09T15:33:10.373Z,13.90
2023-12-09T15:35:38.801Z,21.30
2023-12-09T15:38:08.134Z,24.93
2023-12-09T15:40:36.355Z,18.27
2023-12-09T15:43:05.175Z,17.40
2023-12-09T15:45:33.361Z,21.33
2023-12-09T15:48:01.784Z,21.77
2023-12-09T15:50:32.528Z,21.07
2023-12-09T15:53:01.324Z,12.98
2023-12-09T15:55:30.918Z,19.43
2023-12-09T15:57:59.573Z,30.50
2023-12-09T16:00:27.917Z,25.93
2023-12-09T16:02:56.936Z,26.42
2023-12-09T16:05:26.026Z,26.02
2023-12-09T16:07:57.899Z,31.60
2023-12-09T16:10:27.646Z,25.83
2023-12-09T16:12:55.969Z,29.53
2023-12-09T16:15:24.282Z,23.67
2023-12-09T16:17:52.931Z,26.90
2023-12-09T16:20:21.961Z,18.70
2023-12-09T16:22:52.597Z,28.83
2023-12-09T16:27:53.196Z,24.40
2023-12-09T16:30:22.503Z,43.53
2023-12-09T16:32:51.750Z,24.00
2023-12-09T16:35:20.811Z,19.43
2023-12-09T16:37:49.232Z,24.73
2023-12-09T16:40:17.518Z,32.00
2023-12-09T16:42:47.471Z,21.93
2023-12-09T16:45:16.044Z,32.27
2023-12-09T16:47:45.728Z,26.30
2023-12-09T16:50:15.018Z,15.97
2023-12-09T16:52:43.169Z,26.73
2023-12-09T16:55:11.781Z,24.40
2023-12-09T16:57:40.290Z,22.35
2023-12-09T17:00:11.351Z,20.07
2023-12-09T17:05:11.155Z,26.03
2023-12-09T17:07:39.576Z,23.57
2023-12-09T17:10:09.882Z,24.17
2023-12-09T17:12:40.388Z,33.03
2023-12-09T17:15:10.591Z,30.88
2023-12-09T17:17:39.123Z,28.70
2023-12-09T17:20:09.088Z,22.87
2023-12-09T17:22:37.482Z,26.50
2023-12-09T17:25:06.817Z,33.13
2023-12-09T17:27:35.554Z,20.03
2023-12-09T17:30:04.021Z,24.15
2023-12-09T17:32:35.274Z,23.60
2023-12-09T17:35:03.895Z,29.67
2023-12-09T17:37:32.174Z,20.97
2023-12-09T17:40:01.859Z,30.20
2023-12-09T17:42:30.746Z,25.37
2023-12-09T17:45:00.318Z,18.30
2023-12-09T17:47:28.776Z,28.67
2023-12-09T17:49:58.519Z,17.00
2023-12-09T17:52:29.882Z,16.23
2023-12-09T17:54:59.123Z,25.73
2023-12-09T17:57:27.580Z,22.57
2023-12-09T17:59:56.539Z,30.37
2023-12-09T18:02:24.892Z,19.90
2023-12-09T18:04:53.276Z,30.63
2023-12-09T18:07:23.026Z,32.17
2023-12-09T18:09:51.368Z,21.57
2023-12-09T18:12:20.000Z,18.43
2023-12-09T18:14:48.426Z,14.90
2023-12-09T18:17:16.947Z,24.13
2023-12-09T18:19:47.010Z,18.70
2023-12-09T18:22:17.135Z,20.13
2023-12-09T18:24:48.013Z,25.60
2023-12-09T18:27:16.555Z,25.80
2023-12-09T18:29:45.042Z,83.20
2023-12-09T18:32:16.575Z,24.57
2023-12-09T18:34:45.078Z,21.10
2023-12-09T18:37:13.785Z,22.37
2023-12-09T18:39:42.049Z,19.33
2023-12-09T18:42:11.753Z,18.37
2023-12-09T18:44:40.073Z,19.77
2023-12-09T18:47:08.337Z,24.50
2023-12-09T18:49:36.743Z,23.73
2023-12-09T18:52:05.503Z,85.17
2023-12-09T18:54:40.483Z,22.70
2023-12-09T18:57:08.847Z,22.40
2023-12-09T18:59:38.660Z,22.47
2023-12-09T19:02:12.402Z,24.33
2023-12-09T19:04:44.018Z,22.30
2023-12-09T19:07:13.401Z,28.03
2023-12-09T19:09:43.314Z,21.87
2023-12-09T19:12:15.952Z,25.77
2023-12-09T19:14:46.495Z,25.67
2023-12-09T19:17:14.994Z,21.93
2023-12-09T19:19:43.379Z,25.83
2023-12-09T19:22:11.764Z,24.60
2023-12-09T19:24:40.501Z,33.00
2023-12-09T19:29:40.545Z,27.23
2023-12-09T19:32:10.599Z,25.08
2023-12-09T19:34:39.273Z,25.00
2023-12-09T19:37:07.850Z,28.60
2023-12-09T19:39:36.128Z,35.23
2023-12-09T19:42:04.384Z,37.57
2023-12-09T19:44:32.661Z,25.03
2023-12-09T19:47:01.203Z,35.10
2023-12-09T19:49:32.011Z,22.87
2023-12-09T19:52:00.351Z,31.83
2023-12-09T19:54:28.680Z,22.83
2023-12-09T19:56:56.894Z,19.90
2023-12-09T19:59:25.204Z,18.27
2023-12-09T20:01:58.286Z,21.20
2023-12-09T20:04:26.571Z,22.93
2023-12-09T20:06:59.053Z,23.43
2023-12-09T20:09:27.680Z,17.83
2023-12-09T20:11:58.928Z,22.40
2023-12-09T20:16:57.355Z,18.43
2023-12-09T20:19:26.455Z,15.30
2023-12-09T20:21:56.972Z,17.03
2023-12-09T20:24:25.132Z,18.00
2023-12-09T20:26:53.695Z,14.70
2023-12-09T20:29:22.490Z,11.43
2023-12-09T20:31:50.632Z,14.17
2023-12-09T20:34:19.397Z,14.30
2023-12-09T20:36:48.979Z,17.70
2023-12-09T20:39:18.709Z,15.37
2023-12-09T20:41:46.964Z,12.27
2023-12-09T20:44:15.197Z,12.07
2023-12-09T20:46:48.950Z,20.20
2023-12-09T20:49:19.428Z,12.47
2023-12-09T20:51:53.248Z,17.90
2023-12-09T20:54:25.894Z,13.83
2023-12-09T20:56:54.120Z,19.57
2023-12-09T20:59:22.463Z,17.37
2023-12-09T21:01:54.356Z,12.10
2023-12-09T21:04:26.533Z,20.00
2023-12-09T21:06:56.784Z,14.90
2023-12-09T21:09:27.031Z,12.80
2023-12-09T21:11:58.214Z,15.80
2023-12-09T21:14:26.554Z,22.57
2023-12-09T21:16:54.800Z,16.87
2023-12-09T21:19:27.429Z,13.43
2023-12-09T21:21:56.056Z,17.67
2023-12-09T21:24:24.256Z,19.80
2023-12-09T21:26:54.295Z,9.60
2023-12-09T21:29:22.467Z,15.90
2023-12-09T21:31:51.251Z,14.83
2023-12-09T21:34:19.903Z,13.93
2023-12-09T21:36:49.012Z,19.80
2023-12-09T21:39:17.682Z,17.70
2023-12-09T21:41:46.051Z,12.40
2023-12-09T21:44:15.777Z,12.00
2023-12-09T21:46:43.971Z,20.73
2023-12-09T21:49:12.266Z,10.57
2023-12-09T21:51:41.234Z,14.53
2023-12-09T21:54:09.572Z,17.27
2023-12-09T21:56:37.686Z,14.60
2023-12-09T21:59:05.887Z,18.27
2023-12-09T22:01:36.688Z,19.30
2023-12-09T22:06:33.840Z,15.57
2023-12-09T22:09:02.121Z,16.97
2023-12-09T22:11:31.328Z,20.00
2023-12-09T22:13:59.607Z,18.93
2023-12-09T22:16:28.081Z,15.17
2023-12-09T22:18:58.023Z,15.90
2023-12-09T22:21:26.495Z,13.87
2023-12-09T22:23:54.765Z,19.03
2023-12-09T22:26:24.466Z,14.13
2023-12-09T22:28:52.741Z,17.17
2023-12-09T22:31:20.917Z,16.87
2023-12-09T22:33:51.326Z,18.00
2023-12-09T22:36:22.556Z,15.57
2023-12-09T22:41:22.430Z,18.80
2023-12-09T22:43:51.134Z,22.10
2023-12-09T22:46:26.714Z,9.83
2023-12-09T22:48:55.789Z,14.77
2023-12-09T22:51:26.402Z,19.53
2023-12-09T22:53:54.860Z,18.48
2023-12-09T22:56:24.004Z,18.07
2023-12-09T22:58:54.009Z,17.33
2023-12-09T23:01:26.309Z,13.33
2023-12-09T23:03:54.997Z,12.00
2023-12-09T23:06:24.229Z,10.13
2023-12-09T23:08:54.078Z,15.73
2023-12-09T23:11:22.500Z,19.63
2023-12-09T23:13:50.634Z,17.10
2023-12-09T23:16:18.824Z,10.47
2023-12-09T23:18:47.375Z,12.33
2023-12-09T23:21:15.950Z,15.87
2023-12-09T23:23:45.386Z,14.73
2023-12-09T23:26:15.045Z,17.13
2023-12-09T23:28:43.188Z,14.67
2023-12-09T23:31:11.227Z,14.60
2023-12-09T23:33:39.629Z,17.23
2023-12-09T23:36:08.468Z,17.57
2023-12-09T23:38:36.775Z,19.40
2023-12-09T23:41:05.029Z,16.30
2023-12-09T23:43:34.780Z,24.57
2023-12-09T23:46:02.815Z,20.63
2023-12-09T23:48:31.369Z,19.37
2023-12-09T23:50:59.793Z,25.07
2023-12-09T23:53:27.932Z,17.30
2023-12-09T23:55:57.977Z,13.50
2023-12-09T23:58:26.161Z,13.83
